Time;durP1;ratioP1;P1;durP2;ratioP2;P2;SDS_P1;SDS_P2;PMS_P1;PMS_P2;Temp;Humidity;BMP_temperature;BMP_pressure;BME280_temperature;BME280_humidity;BME280_pressure;Samples;Min_cycle;Max_cycle;Signal;HPM_P1;HPM_P2
2023/05/25 00:00:34;;;;;;;13.85;5.38;;;;;;;9.75;100.00;102670.94;4869430;29;20441;-74
2023/05/25 00:03:08;;;;;;;14.85;5.22;;;;;;;9.76;100.00;102661.31;4888301;29;20052;-74
2023/05/25 00:05:36;;;;;;;15.82;6.25;;;;;;;9.77;100.00;102668.34;4846348;29;20446;-74
2023/05/25 00:08:03;;;;;;;14.55;5.28;;;;;;;9.79;100.00;102671.91;4869945;29;20045;-75
2023/05/25 00:10:30;;;;;;;14.18;5.50;;;;;;;9.81;100.00;102671.97;4881545;29;20422;-75
2023/05/25 00:12:58;;;;;;;13.50;4.68;;;;;;;9.79;100.00;102671.91;4858214;29;20042;-75
2023/05/25 00:15:25;;;;;;;13.55;5.25;;;;;;;9.79;100.00;102665.78;4856687;29;20518;-75
2023/05/25 00:17:53;;;;;;;11.38;4.78;;;;;;;9.77;100.00;102660.44;4852284;29;20045;-75
2023/05/25 00:20:20;;;;;;;13.77;5.28;;;;;;;9.75;100.00;102660.41;4830678;29;20056;-75
2023/05/25 00:22:48;;;;;;;14.00;5.65;;;;;;;9.72;100.00;102657.66;4870560;29;20045;-75
2023/05/25 00:25:15;;;;;;;12.98;5.25;;;;;;;9.70;100.00;102661.09;4861659;29;20068;-75
2023/05/25 00:27:42;;;;;;;10.98;5.13;;;;;;;9.65;100.00;102654.75;4855158;29;20391;-75
2023/05/25 00:30:10;;;;;;;9.68;4.60;;;;;;;9.62;100.00;102652.91;4865275;29;20057;-75
2023/05/25 00:32:37;;;;;;;12.20;5.45;;;;;;;9.59;100.00;102659.81;4866377;29;20037;-75
2023/05/25 00:35:05;;;;;;;9.27;4.22;;;;;;;9.56;100.00;102660.56;4852854;29;20139;-74
2023/05/25 00:37:32;;;;;;;13.43;4.57;;;;;;;9.54;100.00;102670.16;4837392;29;20052;-75
2023/05/25 00:40:00;;;;;;;6.57;4.43;;;;;;;9.51;100.00;102668.31;4881941;29;20066;-75
2023/05/25 00:42:29;;;;;;;12.20;4.80;;;;;;;9.48;100.00;102662.03;4858483;29;20053;-74
2023/05/25 00:44:56;;;;;;;11.13;4.53;;;;;;;9.46;100.00;102666.34;4848760;29;20057;-75
2023/05/25 00:47:24;;;;;;;8.38;4.15;;;;;;;9.43;100.00;102660.97;4858920;29;20068;-75
2023/05/25 00:49:52;;;;;;;9.77;4.63;;;;;;;9.40;100.00;102651.25;4880261;29;20052;-75
2023/05/25 00:52:19;;;;;;;8.82;4.05;;;;;;;9.38;100.00;102662.56;4822751;29;20884;-75
2023/05/25 00:55:05;;;;;;;10.60;4.93;;;;;;;9.33;100.00;102663.25;4861083;29;20427;-75
2023/05/25 00:57:36;;;;;;;13.88;4.80;;;;;;;9.30;100.00;102659.59;4855678;29;20056;-75
2023/05/25 01:00:10;;;;;;;8.48;4.50;;;;;;;9.27;100.00;102663.03;4854973;29;20057;-75
2023/05/25 01:02:42;;;;;;;12.15;4.43;;;;;;;9.24;100.00;102662.91;4869459;29;20058;-75
2023/05/25 01:05:11;;;;;;;19.48;5.35;;;;;;;9.21;100.00;102670.69;4870511;29;20060;-75
2023/05/25 01:07:42;;;;;;;14.35;4.45;;;;;;;9.21;100.00;102668.06;4875137;29;20056;-75
2023/05/25 01:10:13;;;;;;;15.52;4.70;;;;;;;9.19;100.00;102667.13;4838875;29;20044;-75
2023/05/25 01:12:43;;;;;;;12.90;4.40;;;;;;;9.16;100.00;102667.88;4844726;29;20052;-75
2023/05/25 01:15:10;;;;;;;9.03;4.53;;;;;;;9.16;100.00;102677.50;4851142;29;20049;-75
2023/05/25 01:17:38;;;;;;;11.38;4.53;;;;;;;9.14;100.00;102673.94;4842748;29;20057;-75
2023/05/25 01:20:06;;;;;;;10.73;4.78;;;;;;;9.11;100.00;102665.91;4863396;29;20068;-75
2023/05/25 01:22:59;;;;;;;11.70;4.38;;;;;;;9.09;100.00;102676.41;4855698;29;20049;-75
2023/05/25 01:26:06;;;;;;;9.93;4.50;;;;;;;9.07;100.00;102677.16;4866507;29;20513;-75
2023/05/25 01:28:39;;;;;;;20.25;5.10;;;;;;;9.06;100.00;102678.00;4874304;29;20447;-75
2023/05/25 01:31:08;;;;;;;15.68;5.07;;;;;;;9.05;100.00;102678.84;4855816;29;20053;-75
2023/05/25 01:33:37;;;;;;;13.20;5.28;;;;;;;9.05;100.00;102681.47;4870106;29;20056;-75
2023/05/25 01:36:05;;;;;;;11.35;4.57;;;;;;;9.03;100.00;102683.13;4835311;29;20691;-75
2023/05/25 01:38:33;;;;;;;15.55;4.57;;;;;;;9.02;100.00;102681.31;4885839;29;20060;-75
2023/05/25 01:41:00;;;;;;;12.15;4.93;;;;;;;9.00;100.00;102678.66;4813390;29;20040;-75
2023/05/25 01:43:28;;;;;;;7.30;4.20;;;;;;;8.98;100.00;102677.72;4857573;29;20057;-75
2023/05/25 01:46:22;;;;;;;13.70;5.30;;;;;;;8.97;100.00;102687.31;4857803;29;20045;-75
2023/05/25 01:48:58;;;;;;;12.68;4.60;;;;;;;8.95;100.00;102686.34;4838826;29;20061;-75
2023/05/25 01:51:42;;;;;;;7.82;4.53;;;;;;;8.94;100.00;102683.66;4890367;29;20060;-75
2023/05/25 01:54:18;;;;;;;12.88;4.78;;;;;;;8.90;100.00;102687.94;4842406;29;20049;-74
2023/05/25 01:56:48;;;;;;;13.80;4.32;;;;;;;8.89;100.00;102686.13;4865311;29;20060;-75
2023/05/25 01:59:23;;;;;;;15.32;5.85;;;;;;;8.87;100.00;102692.16;4860509;29;20053;-75
2023/05/25 02:01:52;;;;;;;10.02;5.80;;;;;;;8.86;100.00;102700.88;4860582;29;20053;-75
2023/05/25 02:04:20;;;;;;;11.63;5.05;;;;;;;8.84;100.00;102698.19;4864537;29;20046;-75
2023/05/25 02:06:50;;;;;;;9.93;4.88;;;;;;;8.84;100.00;102694.66;4865208;29;20054;-75
2023/05/25 02:09:20;;;;;;;12.70;5.80;;;;;;;8.82;100.00;102697.22;4856974;29;20058;-75
2023/05/25 02:11:48;;;;;;;11.65;5.35;;;;;;;8.81;100.00;102695.44;4822780;29;20050;-74
2023/05/25 02:14:15;;;;;;;13.40;5.32;;;;;;;8.78;100.00;102692.69;4833391;29;20057;-74
2023/05/25 02:16:44;;;;;;;12.57;5.82;;;;;;;8.77;100.00;102696.13;4878340;29;20053;-74
2023/05/25 02:19:13;;;;;;;12.35;5.40;;;;;;;8.75;100.00;102692.56;4842023;29;20080;-74
2023/05/25 02:21:41;;;;;;;14.05;5.78;;;;;;;8.73;100.00;102691.59;4864186;29;20471;-74
2023/05/25 02:24:09;;;;;;;10.88;5.30;;;;;;;8.71;100.00;102693.28;4867569;29;20543;-73
2023/05/25 02:26:38;;;;;;;13.00;5.75;;;;;;;8.69;100.00;102692.31;4827902;29;20055;-74
2023/05/25 02:29:05;;;;;;;15.40;6.72;;;;;;;8.68;100.00;102682.66;4880089;29;20051;-74
2023/05/25 02:31:32;;;;;;;10.48;5.85;;;;;;;8.66;100.00;102684.28;4879258;29;20410;-74
2023/05/25 02:34:00;;;;;;;13.45;6.20;;;;;;;8.65;100.00;102687.78;4851285;29;20045;-74
2023/05/25 02:36:28;;;;;;;14.77;6.53;;;;;;;8.65;100.00;102685.16;4868425;29;20420;-74
2023/05/25 02:38:55;;;;;;;14.25;6.10;;;;;;;8.64;100.00;102675.44;4883612;29;20510;-74
2023/05/25 02:41:23;;;;;;;13.43;6.03;;;;;;;8.64;100.00;102680.72;4860494;29;20069;-74
2023/05/25 02:43:50;;;;;;;15.15;6.22;;;;;;;8.63;100.00;102681.56;4820281;29;20042;-74
2023/05/25 02:46:19;;;;;;;16.48;6.13;;;;;;;8.63;100.00;102692.06;4857706;29;20053;-74
2023/05/25 02:48:47;;;;;;;16.05;6.50;;;;;;;8.61;100.00;102694.63;4864571;29;20061;-74
2023/05/25 02:51:14;;;;;;;13.48;5.57;;;;;;;8.58;100.00;102695.41;4859859;29;20049;-74
2023/05/25 02:53:42;;;;;;;12.82;6.30;;;;;;;8.56;100.00;102697.09;4852188;29;20522;-74
2023/05/25 02:56:09;;;;;;;9.52;5.78;;;;;;;8.52;100.00;102696.88;4839832;29;20049;-74
2023/05/25 02:58:37;;;;;;;8.65;6.00;;;;;;;8.51;100.00;102703.88;4814694;29;20045;-74
2023/05/25 03:01:09;;;;;;;14.10;6.50;;;;;;;8.48;100.00;102703.72;4853737;29;20053;-74
2023/05/25 03:03:42;;;;;;;12.27;6.35;;;;;;;8.47;100.00;102707.22;4854493;29;20053;-74
2023/05/25 03:06:11;;;;;;;11.55;5.95;;;;;;;8.46;100.00;102709.78;4861022;29;20064;-74
2023/05/25 03:08:40;;;;;;;10.50;5.50;;;;;;;8.45;100.00;102708.88;4853152;29;20420;-74
2023/05/25 03:11:07;;;;;;;10.90;5.85;;;;;;;8.45;100.00;102716.75;4853464;29;20080;-74
2023/05/25 03:13:35;;;;;;;13.27;5.93;;;;;;;8.43;100.00;102712.25;4796112;29;20053;-74
2023/05/25 03:16:03;;;;;;;23.83;6.97;;;;;;;8.44;100.00;102714.97;4844887;29;20057;-74
2023/05/25 03:18:30;;;;;;;8.73;5.72;;;;;;;8.45;100.00;102718.47;4853552;29;20527;-74
2023/05/25 03:20:57;;;;;;;10.43;5.55;;;;;;;8.45;100.00;102727.28;4824935;29;20057;-74
2023/05/25 03:23:25;;;;;;;15.90;6.32;;;;;;;8.47;100.00;102729.94;4855278;29;20053;-74
2023/05/25 03:25:55;;;;;;;13.32;6.15;;;;;;;8.48;100.00;102727.38;4858750;29;20053;-74
2023/05/25 03:28:23;;;;;;;10.65;5.65;;;;;;;8.51;100.00;102730.16;4867166;29;20049;-74
2023/05/25 03:30:51;;;;;;;14.38;5.90;;;;;;;8.54;100.00;102729.38;4811392;29;20060;-74
2023/05/25 03:33:19;;;;;;;10.73;6.18;;;;;;;8.56;100.00;102735.59;4854927;29;20050;-74
2023/05/25 03:35:48;;;;;;;12.88;5.90;;;;;;;8.59;100.00;102736.63;4859765;29;20388;-74
2023/05/25 03:38:15;;;;;;;13.35;6.63;;;;;;;8.63;100.00;102742.00;4865283;29;20072;-74
2023/05/25 03:40:42;;;;;;;15.50;6.20;;;;;;;8.66;100.00;102729.91;4861466;29;20053;-74
2023/05/25 03:43:10;;;;;;;14.52;5.82;;;;;;;8.72;100.00;102734.50;4862160;29;20783;-74
2023/05/25 03:45:37;;;;;;;13.43;7.47;;;;;;;8.78;100.00;102732.13;4795491;29;20526;-74
2023/05/25 03:48:05;;;;;;;8.43;5.28;;;;;;;8.86;100.00;102743.81;4853480;29;20415;-74
2023/05/25 03:50:33;;;;;;;10.27;5.88;;;;;;;8.95;100.00;102738.06;4835438;29;20525;-74
2023/05/25 03:53:02;;;;;;;10.35;5.63;;;;;;;9.05;100.00;102742.84;4855811;29;20060;-74
2023/05/25 03:55:29;;;;;;;15.93;6.03;;;;;;;9.14;100.00;102744.94;4853425;29;20060;-75
2023/05/25 03:57:57;;;;;;;12.30;5.88;;;;;;;9.23;100.00;102741.78;4843266;29;20519;-76
2023/05/25 04:00:25;;;;;;;17.67;6.30;;;;;;;9.33;100.00;102743.94;4829356;29;20526;-74
2023/05/25 04:02:53;;;;;;;11.30;5.85;;;;;;;9.41;100.00;102739.84;4840169;29;20045;-74
2023/05/25 04:05:20;;;;;;;13.43;5.93;;;;;;;9.49;100.00;102741.06;4851077;29;20052;-74
2023/05/25 04:07:49;;;;;;;15.45;6.63;;;;;;;9.59;100.00;102739.66;4855428;29;20053;-75
2023/05/25 04:10:16;;;;;;;17.75;6.65;;;;;;;9.68;100.00;102737.38;4872440;29;20052;-74
2023/05/25 04:12:43;;;;;;;15.73;5.80;;;;;;;10.00;100.00;102740.28;4874490;29;20056;-75
2023/05/25 04:15:13;;;;;;;17.35;6.78;;;;;;;10.67;100.00;102736.44;4813068;29;20056;-75
2023/05/25 04:17:51;;;;;;;12.27;5.97;;;;;;;11.24;100.00;102737.38;4854764;29;20054;-75
2023/05/25 04:20:19;;;;;;;10.05;4.93;;;;;;;11.50;100.00;102733.75;4849967;29;20068;-75
2023/05/25 04:22:46;;;;;;;13.57;4.95;;;;;;;12.26;100.00;102735.91;4838299;29;20057;-75
2023/05/25 04:25:15;;;;;;;12.57;5.00;;;;;;;12.72;100.00;102731.78;4860986;29;20049;-75
2023/05/25 04:27:45;;;;;;;12.77;4.90;;;;;;;13.13;100.00;102734.50;4849446;29;20060;-75
2023/05/25 04:30:15;;;;;;;9.00;4.75;;;;;;;13.59;100.00;102727.59;4851773;29;20060;-75
2023/05/25 04:33:05;;;;;;;8.88;4.53;;;;;;;14.39;100.00;102738.84;4821795;29;20067;-73
2023/05/25 04:35:49;;;;;;;8.23;4.38;;;;;;;15.11;100.00;102724.06;4861740;29;20064;-74
2023/05/25 04:38:19;;;;;;;9.45;3.50;;;;;;;15.71;100.00;102724.88;4851909;29;20052;-76
2023/05/25 04:40:46;;;;;;;11.32;3.65;;;;;;;16.33;100.00;102726.44;4850806;29;20060;-76
2023/05/25 04:43:17;;;;;;;11.23;4.10;;;;;;;16.89;100.00;102726.91;4862217;29;20049;-75
2023/05/25 04:45:45;;;;;;;11.93;3.55;;;;;;;17.44;100.00;102734.31;4821561;29;20060;-75
2023/05/25 04:48:13;;;;;;;8.23;3.40;;;;;;;17.96;100.00;102721.22;4819330;29;20053;-75
2023/05/25 04:50:41;;;;;;;10.88;3.53;;;;;;;18.40;100.00;102722.16;4834842;29;20061;-75
2023/05/25 04:53:09;;;;;;;12.48;3.45;;;;;;;18.85;100.00;102725.72;4855282;29;20057;-75
2023/05/25 04:55:37;;;;;;;6.65;2.78;;;;;;;19.20;100.00;102727.41;4850512;29;20415;-76
2023/05/25 04:58:04;;;;;;;7.82;3.03;;;;;;;19.53;100.00;102725.50;4856276;29;20206;-75
2023/05/25 05:00:33;;;;;;;12.32;3.58;;;;;;;19.24;100.00;102723.84;4842539;29;20057;-76
2023/05/25 05:03:01;;;;;;;11.83;3.67;;;;;;;18.61;100.00;102738.16;4789138;29;20056;-73
2023/05/25 05:05:29;;;;;;;14.20;3.10;;;;;;;17.92;100.00;102741.66;4849835;29;20061;-74
2023/05/25 05:08:00;;;;;;;6.43;2.83;;;;;;;17.30;100.00;102734.25;4840002;29;20053;-74
2023/05/25 05:10:27;;;;;;;8.05;3.35;;;;;;;16.75;100.00;102746.31;4804597;29;20060;-75
2023/05/25 05:12:57;;;;;;;7.35;2.72;;;;;;;16.23;100.00;102759.13;4852535;29;20060;-75
2023/05/25 05:15:25;;;;;;;11.15;3.28;;;;;;;15.70;100.00;102754.06;4851073;29;20063;-75
2023/05/25 05:17:52;;;;;;;14.05;3.25;;;;;;;15.20;100.00;102758.75;4810179;29;20057;-74
2023/05/25 05:20:20;;;;;;;9.73;2.67;;;;;;;14.78;100.00;102765.19;4848806;29;20056;-75
2023/05/25 05:22:47;;;;;;;7.90;3.10;;;;;;;14.41;100.00;102768.94;4864424;29;20048;-75
2023/05/25 05:25:16;;;;;;;10.93;3.47;;;;;;;14.03;100.00;102770.00;4852917;29;20120;-75
2023/05/25 05:27:43;;;;;;;10.77;3.03;;;;;;;13.75;100.00;102772.94;4884096;29;20071;-76
2023/05/25 05:30:16;;;;;;;8.07;2.88;;;;;;;13.54;100.00;102782.22;4857860;29;20055;-76
2023/05/25 05:32:44;;;;;;;12.63;3.40;;;;;;;13.36;100.00;102781.81;4864586;29;20067;-76
2023/05/25 05:35:14;;;;;;;9.02;2.80;;;;;;;13.21;100.00;102783.22;4811272;29;20090;-76
2023/05/25 05:37:44;;;;;;;11.83;3.50;;;;;;;13.11;100.00;102791.81;4857085;29;20065;-76
2023/05/25 05:40:12;;;;;;;11.23;3.38;;;;;;;12.99;100.00;102796.81;4849814;29;20638;-75
2023/05/25 05:42:41;;;;;;;7.18;3.08;;;;;;;12.91;100.00;102791.34;4880191;29;20069;-75
2023/05/25 05:45:09;;;;;;;12.63;3.67;;;;;;;12.88;100.00;102800.06;4853041;29;20056;-74
2023/05/25 05:47:37;;;;;;;11.98;3.63;;;;;;;12.87;100.00;102795.66;4866279;29;20065;-74
2023/05/25 05:50:05;;;;;;;12.80;3.83;;;;;;;12.87;100.00;102807.97;4811331;29;20064;-76
2023/05/25 05:52:34;;;;;;;10.77;3.47;;;;;;;12.86;100.00;102812.38;4859017;29;23040;-75
2023/05/25 05:55:02;;;;;;;11.98;2.72;;;;;;;12.89;100.00;102814.19;4867873;29;20446;-75
2023/05/25 05:57:30;;;;;;;13.60;4.05;;;;;;;12.91;100.00;102814.22;4843979;29;20060;-73
2023/05/25 05:59:58;;;;;;;19.83;5.00;;;;;;;12.94;100.00;102822.25;4863551;29;20064;-73
2023/05/25 06:02:25;;;;;;;21.30;3.92;;;;;;;12.91;100.00;102819.53;4866061;29;20073;-75
2023/05/25 06:04:52;;;;;;;13.18;3.30;;;;;;;12.90;100.00;102821.28;4802629;29;20053;-75
2023/05/25 06:07:21;;;;;;;12.25;3.60;;;;;;;12.91;100.00;102830.13;4857210;29;20060;-76
2023/05/25 06:09:50;;;;;;;13.63;4.05;;;;;;;12.96;100.00;102828.47;4858801;29;20112;-76
2023/05/25 06:12:17;;;;;;;11.57;3.90;;;;;;;12.97;100.00;102832.94;4838172;29;20053;-75
2023/05/25 06:14:48;;;;;;;16.77;3.88;;;;;;;12.97;100.00;102847.06;4837153;29;20506;-75
2023/05/25 06:17:16;;;;;;;18.63;3.70;;;;;;;12.95;100.00;102839.91;4860840;29;20084;-76
2023/05/25 06:19:44;;;;;;;16.23;4.22;;;;;;;13.01;100.00;102833.03;4855576;29;20056;-75
2023/05/25 06:22:11;;;;;;;13.13;3.67;;;;;;;13.12;100.00;102830.66;4818606;29;20056;-75
2023/05/25 06:24:38;;;;;;;15.25;3.88;;;;;;;13.20;100.00;102837.03;4881630;29;20056;-74
2023/05/25 06:27:06;;;;;;;16.25;4.05;;;;;;;13.27;100.00;102841.63;4883160;29;20057;-74
2023/05/25 06:29:33;;;;;;;14.30;3.97;;;;;;;13.37;100.00;102847.16;4859891;29;20059;-73
2023/05/25 06:32:01;;;;;;;13.55;3.88;;;;;;;13.33;100.00;102846.19;4855313;29;20422;-73
2023/05/25 06:34:29;;;;;;;14.45;4.03;;;;;;;13.29;100.00;102852.25;4857039;29;20057;-73
2023/05/25 06:36:57;;;;;;;15.18;3.70;;;;;;;13.23;100.00;102860.03;4824874;29;20040;-73
2023/05/25 06:39:25;;;;;;;19.38;4.90;;;;;;;13.35;100.00;102864.78;4860258;29;20068;-73
2023/05/25 06:41:52;;;;;;;15.68;4.63;;;;;;;13.39;100.00;102861.34;4853336;29;20419;-74
2023/05/25 06:44:29;;;;;;;18.98;4.55;;;;;;;13.43;100.00;102869.38;4856244;29;20045;-74
2023/05/25 06:47:00;;;;;;;20.55;5.00;;;;;;;13.37;100.00;102868.34;4857077;29;20073;-74
2023/05/25 06:49:28;;;;;;;16.02;4.07;;;;;;;13.34;100.00;102862.97;4867262;29;20060;-74
2023/05/25 06:51:55;;;;;;;23.02;4.80;;;;;;;13.43;100.00;102871.13;4823374;29;20104;-74
2023/05/25 06:54:23;;;;;;;15.95;4.65;;;;;;;13.53;100.00;102870.47;4868817;29;20053;-74
2023/05/25 06:56:50;;;;;;;15.50;4.55;;;;;;;13.54;100.00;102866.97;4877378;29;20055;-74
2023/05/25 06:59:17;;;;;;;21.60;4.10;;;;;;;13.59;100.00;102873.28;4874387;29;20063;-74
2023/05/25 07:01:46;;;;;;;16.58;3.78;;;;;;;13.61;100.00;102865.34;4860101;29;20048;-74
2023/05/25 07:04:13;;;;;;;14.73;4.25;;;;;;;13.77;100.00;102862.19;4888024;29;20048;-74
2023/05/25 07:06:40;;;;;;;15.68;4.10;;;;;;;13.96;100.00;102868.78;4809954;29;20049;-75
2023/05/25 07:09:08;;;;;;;20.05;4.70;;;;;;;14.06;100.00;102866.34;4861988;29;20055;-75
2023/05/25 07:11:35;;;;;;;21.02;5.43;;;;;;;14.12;100.00;102877.06;4874095;29;20064;-74
2023/05/25 07:14:03;;;;;;;14.27;4.55;;;;;;;14.26;100.00;102869.41;4824726;29;20064;-73
2023/05/25 07:16:30;;;;;;;21.08;4.50;;;;;;;14.34;100.00;102875.75;4882207;29;20102;-77
2023/05/25 07:18:58;;;;;;;23.30;4.82;;;;;;;14.40;100.00;102876.78;4855977;29;20061;-74
2023/05/25 07:21:35;;;;;;;32.53;6.40;;;;;;;14.41;100.00;102898.88;4870476;29;20506;-76
2023/05/25 07:24:03;;;;;;;16.52;4.68;;;;;;;14.43;100.00;102900.69;4803913;29;20052;-76
2023/05/25 07:26:30;;;;;;;22.05;5.43;;;;;;;14.31;100.00;102903.13;4859287;29;20515;-74
2023/05/25 07:28:58;;;;;;;18.83;4.68;;;;;;;14.12;100.00;102903.56;4859166;29;20045;-75
2023/05/25 07:31:25;;;;;;;20.10;4.80;;;;;;;13.95;100.00;102913.81;4843018;29;20064;-75
2023/05/25 07:33:54;;;;;;;19.65;4.57;;;;;;;13.79;100.00;102920.53;4869826;29;20430;-75
2023/05/25 07:36:23;;;;;;;19.42;4.25;;;;;;;13.62;100.00;102923.69;4816513;29;20739;-75
2023/05/25 07:38:51;;;;;;;25.63;5.57;;;;;;;13.51;100.00;102911.94;4817821;29;20041;-75
2023/05/25 07:41:18;;;;;;;23.40;4.50;;;;;;;13.41;100.00;102926.72;4842925;29;20060;-75
2023/05/25 07:43:46;;;;;;;17.92;4.75;;;;;;;13.30;100.00;102920.25;4848073;29;20147;-75
2023/05/25 07:46:14;;;;;;;31.80;5.32;;;;;;;13.23;100.00;102921.84;4854921;29;20076;-75
2023/05/25 07:48:42;;;;;;;21.50;4.72;;;;;;;13.26;100.00;102928.94;4852637;29;20169;-75
2023/05/25 07:51:09;;;;;;;21.92;5.70;;;;;;;13.27;100.00;102918.41;4898551;29;20048;-75
2023/05/25 07:53:36;;;;;;;26.17;5.38;;;;;;;13.29;100.00;102913.16;4840051;29;20048;-76
2023/05/25 07:56:04;;;;;;;22.30;5.03;;;;;;;13.25;100.00;102917.47;4876720;29;20064;-75
2023/05/25 07:58:33;;;;;;;22.00;6.00;;;;;;;13.27;100.00;102923.69;4861118;29;20175;-76
2023/05/25 08:01:02;;;;;;;15.90;4.65;;;;;;;13.34;100.00;102921.22;4845955;29;20049;-75
2023/05/25 08:03:29;;;;;;;25.88;4.97;;;;;;;13.48;100.00;102921.56;4860240;29;20471;-75
2023/05/25 08:06:15;;;;;;;19.70;4.88;;;;;;;13.57;100.00;102941.25;4858944;29;20045;-75
2023/05/25 08:08:43;;;;;;;22.05;5.22;;;;;;;13.57;100.00;102935.94;4821027;29;20057;-76
2023/05/25 08:11:11;;;;;;;20.02;4.97;;;;;;;13.58;100.00;102936.81;4879967;29;20045;-76
2023/05/25 08:13:39;;;;;;;26.23;5.13;;;;;;;13.55;100.00;102937.63;4834789;29;20090;-76
2023/05/25 08:16:07;;;;;;;20.60;5.47;;;;;;;13.67;100.00;102946.72;4858129;29;20056;-75
2023/05/25 08:18:34;;;;;;;21.50;4.93;;;;;;;13.76;100.00;102941.66;4840210;29;20049;-76
2023/05/25 08:21:02;;;;;;;24.90;6.20;;;;;;;13.81;100.00;102956.78;4892109;29;20414;-76
2023/05/25 08:23:29;;;;;;;16.52;4.50;;;;;;;13.77;100.00;102947.00;4809972;29;21348;-76
2023/05/25 08:25:57;;;;;;;23.48;4.93;;;;;;;13.78;100.00;102958.47;4829376;29;20053;-75
2023/05/25 08:28:24;;;;;;;19.98;4.72;;;;;;;13.76;100.00;102962.84;4862078;29;20523;-75
2023/05/25 08:30:52;;;;;;;20.33;4.40;;;;;;;13.76;100.00;102955.81;4852416;29;20055;-75
2023/05/25 08:33:19;;;;;;;25.63;5.80;;;;;;;13.88;100.00;102962.25;4858865;29;20053;-74
2023/05/25 08:35:49;;;;;;;17.42;4.65;;;;;;;13.87;100.00;102966.66;4861324;29;20047;-74
2023/05/25 08:38:16;;;;;;;20.80;5.55;;;;;;;13.92;100.00;102964.13;4868178;29;20049;-76
2023/05/25 08:40:46;;;;;;;21.92;5.95;;;;;;;13.99;100.00;102966.94;4802202;29;20049;-76
2023/05/25 08:43:13;;;;;;;20.55;4.97;;;;;;;13.99;100.00;102969.59;4866617;29;20060;-76
2023/05/25 08:45:42;;;;;;;15.52;4.18;;;;;;;13.90;100.00;102972.03;4845221;29;20053;-75
2023/05/25 08:48:15;;;;;;;14.38;3.90;;;;;;;13.77;100.00;102972.59;4850942;29;20570;-75
2023/05/25 08:51:07;;;;;;;24.42;5.72;;;;;;;13.71;100.00;102975.13;4868690;29;20518;-75
2023/05/25 08:53:39;;;;;;;19.10;4.65;;;;;;;13.73;100.00;102978.69;4842802;29;20044;-75
2023/05/25 08:56:17;;;;;;;20.08;5.07;;;;;;;13.90;100.00;102958.78;4812193;29;20075;-75
2023/05/25 08:58:52;;;;;;;15.90;3.90;;;;;;;14.16;100.00;102967.31;4863366;29;20059;-75
2023/05/25 09:01:25;;;;;;;19.30;3.95;;;;;;;14.30;100.00;102969.38;4848439;29;20068;-76
2023/05/25 09:03:53;;;;;;;14.75;4.22;;;;;;;14.43;100.00;102971.44;4883435;29;20049;-74
2023/05/25 09:06:25;;;;;;;17.20;4.25;;;;;;;14.46;100.00;102976.81;4867501;29;20501;-75
2023/05/25 09:08:53;;;;;;;17.55;4.78;;;;;;;14.47;100.00;102981.25;4848367;29;20052;-75
2023/05/25 09:11:21;;;;;;;19.05;4.78;;;;;;;14.43;100.00;102984.69;4829522;29;20380;-75
2023/05/25 09:14:04;;;;;;;21.42;4.80;;;;;;;14.36;100.00;102994.25;4869343;29;20072;-74
2023/05/25 09:16:32;;;;;;;17.48;4.63;;;;;;;14.37;100.00;102977.50;4841345;29;20045;-75
2023/05/25 09:19:00;;;;;;;18.25;4.25;;;;;;;14.38;100.00;102987.22;4853331;29;20503;-75
2023/05/25 09:21:28;;;;;;;15.05;4.35;;;;;;;14.38;100.00;102983.69;4850806;29;20080;-74
2023/05/25 09:23:55;;;;;;;24.70;5.45;;;;;;;14.54;100.00;102977.84;4848915;29;20064;-75
2023/05/25 09:26:22;;;;;;;21.17;5.70;;;;;;;14.67;100.00;102979.03;4828273;29;20064;-75
2023/05/25 09:28:50;;;;;;;15.93;4.22;;;;;;;14.87;100.00;102979.41;4845059;29;20049;-76
2023/05/25 09:31:17;;;;;;;18.05;5.40;;;;;;;14.92;100.00;102975.09;4821835;29;20061;-76
2023/05/25 09:33:45;;;;;;;22.92;4.72;;;;;;;14.80;100.00;102991.69;4825447;29;20522;-76
2023/05/25 09:36:15;;;;;;;21.27;6.18;;;;;;;14.76;100.00;102983.63;4865222;29;20057;-75
2023/05/25 09:38:42;;;;;;;16.92;4.63;;;;;;;14.74;100.00;102996.84;4843765;29;20052;-75
2023/05/25 09:41:10;;;;;;;20.85;5.18;;;;;;;14.70;100.00;102996.78;4833869;29;20057;-76
2023/05/25 09:43:38;;;;;;;23.40;4.80;;;;;;;14.65;100.00;102990.47;4791851;29;20096;-75
2023/05/25 09:46:15;;;;;;;21.17;4.82;;;;;;;14.74;100.00;102988.91;4838338;29;20056;-75
2023/05/25 09:48:44;;;;;;;24.83;5.25;;;;;;;14.92;100.00;102993.69;4824092;29;20049;-76
2023/05/25 09:51:12;;;;;;;21.38;4.93;;;;;;;15.07;100.00;102985.13;4821695;29;20053;-76
2023/05/25 09:53:40;;;;;;;25.15;5.60;;;;;;;15.19;100.00;102992.41;4810911;29;20057;-76
2023/05/25 09:56:07;;;;;;;27.63;6.07;;;;;;;15.12;100.00;102995.81;4848585;29;20045;-75
2023/05/25 09:58:34;;;;;;;19.15;5.15;;;;;;;15.06;100.00;102996.59;4790737;29;20067;-75
2023/05/25 10:01:03;;;;;;;25.80;5.35;;;;;;;15.07;100.00;102995.75;4833132;29;20072;-76
2023/05/25 10:03:31;;;;;;;23.20;4.95;;;;;;;15.08;100.00;102997.50;4829425;29;20076;-75
2023/05/25 10:06:00;;;;;;;24.45;5.57;;;;;;;15.09;100.00;103015.25;4836721;29;20046;-76
2023/05/25 10:08:28;;;;;;;22.77;5.07;;;;;;;14.94;100.00;102996.38;4828977;29;20045;-77
2023/05/25 10:10:55;;;;;;;23.00;5.20;;;;;;;14.94;100.00;103004.34;4844869;29;20060;-75
2023/05/25 10:13:27;;;;;;;20.83;5.10;;;;;;;15.10;100.00;103005.50;4806945;29;20048;-77
2023/05/25 10:15:56;;;;;;;15.65;4.28;;;;;;;15.25;100.00;102999.59;4868228;29;20052;-77
2023/05/25 10:18:27;;;;;;;20.83;5.47;;;;;;;15.38;100.00;103013.09;4859563;29;20056;-77
2023/05/25 10:21:01;;;;;;;19.42;5.82;;;;;;;15.38;100.00;103018.41;4846518;29;20088;-76
2023/05/25 10:23:36;;;;;;;24.15;5.13;;;;;;;15.32;100.00;103015.66;4843545;29;20063;-77
2023/05/25 10:26:07;;;;;;;26.75;6.00;;;;;;;15.16;100.00;103014.50;4867600;29;20072;-76
2023/05/25 10:28:38;;;;;;;22.80;6.00;;;;;;;14.99;100.00;103023.91;4866966;29;20056;-76
2023/05/25 10:31:06;;;;;;;22.63;5.18;;;;;;;14.87;100.00;103019.22;4844177;29;20056;-76
2023/05/25 10:33:33;;;;;;;23.67;4.75;;;;;;;14.79;100.00;103021.75;4859842;29;20049;-76
2023/05/25 10:36:02;;;;;;;23.30;6.13;;;;;;;14.72;100.00;103025.13;4839702;29;20061;-76
2023/05/25 10:38:43;;;;;;;19.73;5.40;;;;;;;14.63;100.00;103032.91;4856031;29;20067;-76
2023/05/25 10:41:10;;;;;;;18.80;4.32;;;;;;;14.57;100.00;103031.03;4887938;29;20048;-75
2023/05/25 10:43:39;;;;;;;21.77;4.85;;;;;;;14.55;100.00;103037.13;4850436;29;20059;-75
2023/05/25 10:46:07;;;;;;;24.27;6.03;;;;;;;14.50;100.00;103034.38;4822857;29;20077;-75
2023/05/25 10:48:38;;;;;;;19.52;4.72;;;;;;;14.69;100.00;103030.38;4877271;29;20055;-75
2023/05/25 10:51:06;;;;;;;22.23;4.72;;;;;;;14.86;100.00;103030.72;4870656;29;20045;-75
2023/05/25 10:53:38;;;;;;;23.52;6.53;;;;;;;14.93;100.00;103029.09;4859277;29;20450;-75
2023/05/25 10:56:09;;;;;;;22.20;5.15;;;;;;;15.03;100.00;103025.75;4858193;29;20045;-75
2023/05/25 10:58:42;;;;;;;22.92;5.20;;;;;;;15.08;100.00;103025.84;4862313;29;20748;-75
2023/05/25 11:01:12;;;;;;;27.05;5.72;;;;;;;15.13;100.00;103027.72;4824081;29;20052;-75
2023/05/25 11:03:42;;;;;;;27.65;5.82;;;;;;;15.10;100.00;103032.94;4844926;29;20690;-75
2023/05/25 11:06:12;;;;;;;21.95;5.32;;;;;;;15.04;100.00;103022.22;4870179;29;20076;-75
2023/05/25 11:08:57;;;;;;;19.63;4.95;;;;;;;15.21;100.00;103020.78;4849528;29;20056;-75
2023/05/25 11:11:44;;;;;;;23.70;5.05;;;;;;;15.30;100.00;103012.09;4870197;29;20541;-75
2023/05/25 11:14:31;;;;;;;28.83;5.57;;;;;;;15.27;100.00;103016.44;4868653;29;20059;-77
2023/05/25 11:17:14;;;;;;;18.50;4.95;;;;;;;15.35;100.00;103022.81;4826041;29;20049;-76
2023/05/25 11:19:53;;;;;;;26.80;5.85;;;;;;;15.31;100.00;103010.31;4874988;29;20057;-75
2023/05/25 11:22:22;;;;;;;23.52;5.32;;;;;;;15.35;100.00;103006.88;4862678;29;20051;-75